DIRECCIÓN GENERAL DE AERONÁUTICA CIVIL
DIRECCIÓN METEOROLÓGICA DE CHILE
INFORMACIÓN METAR Y TAF

FIR SANTIAGO

Estación: SCSE
METAR SCSE 311700Z 29011KT CAVOK 18/11 Q1014=

TAF SCSE 311620Z 3118/0118 31010KT CAVOK TX19/3118Z TN11/0110Z BECMG 0100/0102 29005KT BECMG 0106/0108 11004KT SCT010 TEMPO 0108/0112 VRB02KT BKN008 BECMG 0114/0116 29008KT=

Estación: SCER
NIL=

NIL=

Estación: SCRD
METAR SCRD 311700Z 19014KT CAVOK 22/06 Q1016=

TAF SCRD 311030Z 3112/3124 16005KT CAVOK TX20/3118Z TN12/3112Z BECMG 3115/3117 22012KT=

Estación: SCVM
METAR SCVM 311600Z 33008KT CAVOK 20/10 Q1015=

TAF SCVM 311620Z 3118/0118 33010KT CAVOK TX22/3119Z TN10/0110Z BECMG 3120/3122 22012KT BECMG 0102/0104 18005KT TEMPO 0108/0112 VRB02KT BKN010 BECMG 0114/0116 32010KT=

Estación: SCTB
METAR SCTB 311700Z 25005KT CAVOK 23/07 Q1016=

TAF SCTB 311030Z 3112/3124 VRB02KT CAVOK TX25/3118Z TN10/3112Z BECMG 3115/3117 21008KT TEMPO 3116/3120 SCT050=

Estación: SCEL
METAR SCEL 311600Z 19007KT 140V240 CAVOK 22/02 Q1015 NOSIG=

TAF SCEL 311620Z 3118/0118 22012KT CAVOK TX26/3119Z TN10/0110Z BECMG 0102/0104 16005KT BECMG 0110/0112 VRB02KT SCT180 BECMG 0115/0117 17005KT=

Estación: SCSN
METAR SCSN 311600Z 24017KT CAVOK 16/08 Q1016=

TAF SCSN 311030Z 3112/3124 18004KT CAVOK TX20/3118Z TN10/3112Z BECMG 3115/3117 24012KT=

Estación: SCRG
METAR SCRG 302000Z 17015KT CAVOK 21/06 Q1015=

TAF SCRG 301033Z 3012/3024 VRB02KT 9999 SCT042 TX22/3018Z TN11/3012Z BECMG 3016/3018 18010KT CAVOK=

Estación: SCIC
METAR SCIC 311600Z 19009KT CAVOK 16/07 Q1017=

TAF SCIC 311030Z 3112/3124 18003KT 9999 BKN010 TX20/3118Z TN09/3112Z BECMG 3114/3116 CAVOK BECMG 3117/3119 23010KT=

Estación: SCCH
METAR SCCH 311600Z 19010KT CAVOK 16/05 Q1019=

TAF SCCH 311030Z 3112/3124 VRB02KT CAVOK TX18/3118Z TN09/3112Z BECMG 3117/3119 20010KT=

Estación: SCIE
METAR SCIE 311600Z 23010KT 190V270 CAVOK 16/04 Q1021=

TAF SCIE 311620Z 3118/0118 22013KT CAVOK TX18/3118Z TN08/0110Z BECMG 0102/0104 18005KT BECMG 0114/0116 20012KT BECMG 0116/0118 SCT025=

Estación: SCGE
METAR SCGE 311500Z 20017KT CAVOK 15/07 Q1020 =

TAF SCGE 311030Z 3112/3124 VRB02KT CAVOK TX18/3118Z TN10/3112Z BECMG 3118/3120 23010KT=


Volver